createdAt,value
2018-12-31T00:00:16.424Z,1028.09
2018-12-31T00:01:16.387Z,1028.12
2018-12-31T00:02:16.471Z,1028.07
2018-12-31T00:03:16.451Z,1028.10
2018-12-31T00:04:16.786Z,1028.09
2018-12-31T00:05:16.527Z,1028.09
2018-12-31T00:06:16.601Z,1028.08
2018-12-31T00:07:16.588Z,1028.15
2018-12-31T00:08:16.658Z,1028.11
2018-12-31T00:09:16.635Z,1028.12
2018-12-31T00:10:16.726Z,1028.17
2018-12-31T00:11:16.998Z,1028.14
2018-12-31T00:12:16.885Z,1028.13
2018-12-31T00:13:16.773Z,1028.15
2018-12-31T00:14:16.844Z,1028.16
2018-12-31T00:15:16.924Z,1028.15
2018-12-31T00:16:16.957Z,1028.14
2018-12-31T00:17:16.938Z,1028.21
2018-12-31T00:18:17.272Z,1028.19
2018-12-31T00:20:17.075Z,1028.19
2018-12-31T00:21:17.011Z,1028.23
2018-12-31T00:22:17.091Z,1028.19
2018-12-31T00:23:17.081Z,1028.26
2018-12-31T00:25:17.188Z,1028.23
2018-12-31T00:26:17.573Z,1028.27
2018-12-31T00:27:17.214Z,1028.26
2018-12-31T00:28:17.284Z,1028.27
2018-12-31T00:29:17.378Z,1028.27
2018-12-31T00:30:17.291Z,1028.28
2018-12-31T00:31:17.381Z,1028.25
2018-12-31T00:32:17.403Z,1028.28
2018-12-31T00:33:17.691Z,1028.25
2018-12-31T00:34:17.415Z,1028.29
2018-12-31T00:35:17.497Z,1028.27
2018-12-31T00:36:17.537Z,1028.24
2018-12-31T00:37:17.669Z,1028.26
2018-12-31T00:38:17.546Z,1028.29
2018-12-31T00:39:17.728Z,1028.30
2018-12-31T00:40:17.905Z,1028.32
2018-12-31T00:41:17.740Z,1028.30
2018-12-31T00:42:17.669Z,1028.31
2018-12-31T00:43:17.702Z,1028.32
2018-12-31T00:44:17.783Z,1028.34
2018-12-31T00:45:17.764Z,1028.33
2018-12-31T00:46:17.845Z,1028.34
2018-12-31T00:47:18.226Z,1028.33
2018-12-31T00:48:17.901Z,1028.31
2018-12-31T00:49:17.946Z,1028.36
2018-12-31T00:50:17.971Z,1028.37
2018-12-31T00:51:18.000Z,1028.39
2018-12-31T00:52:18.040Z,1028.40
2018-12-31T00:53:18.010Z,1028.38
2018-12-31T00:54:18.400Z,1028.38
2018-12-31T00:55:18.070Z,1028.38
2018-12-31T00:56:18.199Z,1028.38
2018-12-31T00:57:18.137Z,1028.40
2018-12-31T00:58:18.227Z,1028.39
2018-12-31T00:59:18.246Z,1028.41
2018-12-31T01:01:18.308Z,1028.41
2018-12-31T01:02:18.587Z,1028.41
2018-12-31T01:03:18.428Z,1028.43
2018-12-31T01:04:18.362Z,1028.43
2018-12-31T01:05:18.394Z,1028.45
2018-12-31T01:06:18.467Z,1028.46
2018-12-31T01:07:18.504Z,1028.45
2018-12-31T01:08:18.526Z,1028.45
2018-12-31T01:09:18.544Z,1028.44
2018-12-31T01:10:18.550Z,1028.45
2018-12-31T01:11:18.624Z,1028.46
2018-12-31T01:12:18.610Z,1028.47
2018-12-31T01:13:18.782Z,1028.45
2018-12-31T01:14:18.764Z,1028.47
2018-12-31T01:15:19.051Z,1028.48
2018-12-31T01:16:18.780Z,1028.50
2018-12-31T01:17:18.761Z,1028.47
2018-12-31T01:18:18.844Z,1028.47
2018-12-31T01:19:18.903Z,1028.49
2018-12-31T01:20:18.908Z,1028.48
2018-12-31T01:21:19.183Z,1028.48
2018-12-31T01:22:18.918Z,1028.48
2018-12-31T01:23:19.005Z,1028.51
2018-12-31T01:24:19.030Z,1028.47
2018-12-31T01:25:19.010Z,1028.47
2018-12-31T01:26:19.087Z,1028.51
2018-12-31T01:27:19.375Z,1028.48
2018-12-31T01:28:19.176Z,1028.47
2018-12-31T01:29:19.134Z,1028.48
2018-12-31T01:30:19.168Z,1028.46
2018-12-31T01:31:19.295Z,1028.48
2018-12-31T01:32:19.237Z,1028.50
2018-12-31T01:33:19.611Z,1028.46
2018-12-31T01:34:19.291Z,1028.50
2018-12-31T01:35:19.324Z,1028.54
2018-12-31T01:37:19.435Z,1028.51
2018-12-31T01:38:19.466Z,1028.55
2018-12-31T01:39:19.446Z,1028.58
2018-12-31T01:41:19.866Z,1028.54
2018-12-31T01:42:19.544Z,1028.53
2018-12-31T01:43:19.620Z,1028.54
2018-12-31T01:44:19.601Z,1028.51
2018-12-31T01:45:19.696Z,1028.48
2018-12-31T01:46:19.767Z,1028.43
2018-12-31T01:47:19.713Z,1028.39
2018-12-31T01:48:20.071Z,1028.38
2018-12-31T01:49:19.853Z,1028.36
2018-12-31T01:50:19.835Z,1028.32
2018-12-31T01:51:19.878Z,1028.33
2018-12-31T01:52:19.903Z,1028.37
2018-12-31T01:53:19.963Z,1028.37
2018-12-31T01:55:20.008Z,1028.42
2018-12-31T01:56:20.328Z,1028.41
2018-12-31T01:57:20.008Z,1028.38
2018-12-31T01:58:20.090Z,1028.41
2018-12-31T01:59:20.121Z,1028.42
2018-12-31T02:00:20.155Z,1028.39
2018-12-31T02:01:20.128Z,1028.40
2018-12-31T02:02:20.464Z,1028.39
2018-12-31T02:03:20.206Z,1028.33
2018-12-31T02:04:20.284Z,1028.39
2018-12-31T02:05:20.260Z,1028.43
2018-12-31T02:06:20.337Z,1028.44
2018-12-31T02:07:20.422Z,1028.42
2018-12-31T02:09:20.441Z,1028.42
2018-12-31T02:11:20.794Z,1028.43
2018-12-31T02:12:20.780Z,1028.45
2018-12-31T02:13:20.508Z,1028.48
2018-12-31T02:14:20.590Z,1028.45
2018-12-31T02:15:20.584Z,1028.43
2018-12-31T02:17:20.937Z,1028.42
2018-12-31T02:18:20.667Z,1028.44
2018-12-31T02:19:20.699Z,1028.42
2018-12-31T02:20:20.776Z,1028.43
2018-12-31T02:21:20.759Z,1028.44
2018-12-31T02:22:20.800Z,1028.46
2018-12-31T02:23:20.906Z,1028.49
2018-12-31T02:24:21.308Z,1028.48
2018-12-31T02:25:20.895Z,1028.53
2018-12-31T02:26:20.914Z,1028.53
2018-12-31T02:28:20.976Z,1028.56
2018-12-31T02:29:21.057Z,1028.56
2018-12-31T02:30:21.089Z,1028.62
2018-12-31T02:31:21.421Z,1028.65
2018-12-31T02:32:21.100Z,1028.64
2018-12-31T02:33:21.181Z,1028.66
2018-12-31T02:34:21.213Z,1028.68
2018-12-31T02:35:21.247Z,1028.66
2018-12-31T02:36:21.231Z,1028.66
2018-12-31T02:37:21.313Z,1028.66
2018-12-31T02:38:21.589Z,1028.70
2018-12-31T02:39:21.375Z,1028.69
2018-12-31T02:40:21.405Z,1028.69
2018-12-31T02:41:21.734Z,1028.67
2018-12-31T02:42:21.421Z,1028.65
2018-12-31T02:43:21.443Z,1028.64
2018-12-31T02:44:21.537Z,1028.59
2018-12-31T02:45:21.809Z,1028.63
2018-12-31T02:46:21.608Z,1028.63
2018-12-31T02:47:21.674Z,1028.62
2018-12-31T02:48:21.657Z,1028.64
2018-12-31T02:49:21.643Z,1028.62
2018-12-31T02:50:21.711Z,1028.60
2018-12-31T02:51:21.747Z,1028.53
2018-12-31T02:52:22.033Z,1028.53
2018-12-31T02:55:21.880Z,1028.45
2018-12-31T02:56:21.911Z,1028.40
2018-12-31T02:57:22.057Z,1028.40
2018-12-31T02:58:21.969Z,1028.43
2018-12-31T03:00:21.982Z,1028.38
2018-12-31T03:01:22.008Z,1028.41
2018-12-31T03:02:22.139Z,1028.40
2018-12-31T03:04:22.158Z,1028.32
2018-12-31T03:05:22.139Z,1028.30
2018-12-31T03:06:22.462Z,1028.30
2018-12-31T03:07:22.260Z,1028.30
2018-12-31T03:08:22.280Z,1028.27
2018-12-31T03:09:22.275Z,1028.23
2018-12-31T03:10:22.290Z,1028.21
2018-12-31T03:11:22.322Z,1028.17
2018-12-31T03:12:22.351Z,1028.14
2018-12-31T03:13:22.784Z,1028.09
2018-12-31T03:14:22.478Z,1028.11
2018-12-31T03:15:22.597Z,1028.10
2018-12-31T03:16:22.483Z,1028.14
2018-12-31T03:17:22.509Z,1028.16
2018-12-31T03:18:22.596Z,1028.18
2018-12-31T03:19:22.624Z,1028.20
2018-12-31T03:20:22.963Z,1028.22
2018-12-31T03:21:22.684Z,1028.23
2018-12-31T03:23:22.855Z,1028.17
2018-12-31T03:24:22.806Z,1028.18
2018-12-31T03:25:22.766Z,1028.15
2018-12-31T03:26:22.797Z,1028.18
2018-12-31T03:27:23.121Z,1028.18
2018-12-31T03:28:22.911Z,1028.16
2018-12-31T03:29:22.939Z,1028.14
2018-12-31T03:30:23.023Z,1028.19
2018-12-31T03:31:22.999Z,1028.17
2018-12-31T03:32:23.060Z,1028.19
2018-12-31T03:33:23.007Z,1028.20
2018-12-31T03:34:23.105Z,1028.22
2018-12-31T03:35:23.075Z,1028.24
2018-12-31T03:36:23.156Z,1028.26
2018-12-31T03:37:23.140Z,1028.25
2018-12-31T03:38:23.163Z,1028.26
2018-12-31T03:39:23.246Z,1028.28
2018-12-31T03:40:23.551Z,1028.27
2018-12-31T03:41:23.307Z,1028.28
2018-12-31T03:42:23.314Z,1028.25
2018-12-31T03:44:23.354Z,1028.27
2018-12-31T03:45:23.444Z,1028.30
2018-12-31T03:46:23.737Z,1028.28
2018-12-31T03:47:23.453Z,1028.27
2018-12-31T03:49:23.559Z,1028.29
2018-12-31T03:50:23.591Z,1028.27
2018-12-31T03:51:23.575Z,1028.31
2018-12-31T03:52:23.956Z,1028.30
2018-12-31T03:53:23.636Z,1028.31
2018-12-31T03:54:23.724Z,1028.31
2018-12-31T03:55:23.749Z,1028.30
2018-12-31T03:56:23.791Z,1028.30
2018-12-31T03:57:23.765Z,1028.31
2018-12-31T03:58:24.292Z,1028.27
2018-12-31T03:59:23.929Z,1028.27
2018-12-31T04:00:23.912Z,1028.29
2018-12-31T04:01:23.888Z,1028.30
2018-12-31T04:02:23.989Z,1028.31
2018-12-31T04:03:24.010Z,1028.33
2018-12-31T04:04:24.119Z,1028.33
2018-12-31T04:05:24.368Z,1028.31
2018-12-31T04:06:24.198Z,1028.32
2018-12-31T04:07:24.084Z,1028.33
2018-12-31T04:08:24.158Z,1028.34
2018-12-31T04:09:24.192Z,1028.31
2018-12-31T04:10:24.218Z,1028.24
2018-12-31T04:11:24.351Z,1028.16
2018-12-31T04:12:24.536Z,1028.16
2018-12-31T04:13:24.356Z,1028.20
2018-12-31T04:14:24.303Z,1028.29
2018-12-31T04:15:24.380Z,1028.31
2018-12-31T04:17:24.446Z,1028.32
2018-12-31T04:18:24.474Z,1028.29
2018-12-31T04:19:24.803Z,1028.28
2018-12-31T04:20:24.639Z,1028.30
2018-12-31T04:21:24.521Z,1028.30
2018-12-31T04:22:24.551Z,1028.30
2018-12-31T04:23:24.576Z,1028.26
2018-12-31T04:24:24.607Z,1028.26
2018-12-31T04:25:24.759Z,1028.24
2018-12-31T04:26:24.990Z,1028.26
2018-12-31T04:27:24.709Z,1028.23
2018-12-31T04:28:24.894Z,1028.26
2018-12-31T04:30:24.792Z,1028.30
2018-12-31T04:31:24.931Z,1028.32
2018-12-31T04:33:24.941Z,1028.34
2018-12-31T04:34:25.272Z,1028.33
2018-12-31T04:35:25.014Z,1028.31
2018-12-31T04:36:25.036Z,1028.32
2018-12-31T04:37:25.022Z,1028.27
2018-12-31T04:38:25.053Z,1028.29
2018-12-31T04:39:25.080Z,1028.28
2018-12-31T04:40:25.109Z,1028.27
2018-12-31T04:41:25.502Z,1028.29
2018-12-31T04:43:25.256Z,1028.31
2018-12-31T04:44:25.233Z,1028.27
2018-12-31T04:45:25.365Z,1028.26
2018-12-31T04:46:25.456Z,1028.29
2018-12-31T04:47:26.032Z,1028.28
2018-12-31T04:48:25.716Z,1028.25
2018-12-31T04:49:25.396Z,1028.26
2018-12-31T04:50:25.474Z,1028.27
2018-12-31T04:51:25.509Z,1028.26
2018-12-31T04:52:25.533Z,1028.25
2018-12-31T04:53:25.620Z,1028.27
2018-12-31T04:54:25.563Z,1028.26
2018-12-31T04:55:25.983Z,1028.28
2018-12-31T04:57:25.640Z,1028.23
2018-12-31T04:58:25.746Z,1028.22
2018-12-31T04:59:26.011Z,1028.25
2018-12-31T05:00:25.742Z,1028.23
2018-12-31T05:01:25.790Z,1028.22
2018-12-31T05:02:26.150Z,1028.20
2018-12-31T05:03:25.837Z,1028.20
2018-12-31T05:04:25.962Z,1028.21
2018-12-31T05:05:25.903Z,1028.23
2018-12-31T05:06:25.982Z,1028.25
2018-12-31T05:07:26.005Z,1028.22
2018-12-31T05:08:26.047Z,1028.19
2018-12-31T05:09:26.624Z,1028.24
2018-12-31T05:10:26.125Z,1028.18
2018-12-31T05:11:26.114Z,1028.15
2018-12-31T05:14:26.229Z,1028.17
2018-12-31T05:15:26.262Z,1028.18
2018-12-31T05:16:26.540Z,1028.15
2018-12-31T05:17:26.273Z,1028.16
2018-12-31T05:18:26.494Z,1028.19
2018-12-31T05:19:26.389Z,1028.20
2018-12-31T05:20:26.418Z,1028.18
2018-12-31T05:21:26.446Z,1028.20
2018-12-31T05:22:26.484Z,1028.23
2018-12-31T05:23:26.820Z,1028.25
2018-12-31T05:24:26.550Z,1028.23
2018-12-31T05:25:26.684Z,1028.24
2018-12-31T05:26:26.559Z,1028.23
2018-12-31T05:27:26.640Z,1028.18
2018-12-31T05:28:26.672Z,1028.22
2018-12-31T05:29:26.680Z,1028.18
2018-12-31T05:30:27.035Z,1028.18
2018-12-31T05:31:26.715Z,1028.19
2018-12-31T05:32:26.750Z,1028.21
2018-12-31T05:33:26.828Z,1028.21
2018-12-31T05:34:26.859Z,1028.18
2018-12-31T05:35:26.841Z,1028.18
2018-12-31T05:36:26.927Z,1028.18
2018-12-31T05:37:27.208Z,1028.19
2018-12-31T05:38:26.945Z,1028.19
2018-12-31T05:39:27.018Z,1028.21
2018-12-31T05:40:27.088Z,1028.19
2018-12-31T05:41:27.040Z,1028.22
2018-12-31T05:42:27.104Z,1028.19
2018-12-31T05:43:27.388Z,1028.16
2018-12-31T05:45:27.204Z,1028.11
2018-12-31T05:46:27.238Z,1028.14
2018-12-31T05:47:27.270Z,1028.15
2018-12-31T05:48:27.298Z,1028.14
2018-12-31T05:49:27.576Z,1028.14
2018-12-31T05:50:27.362Z,1028.18
2018-12-31T05:51:27.392Z,1028.19
2018-12-31T05:52:27.417Z,1028.22
2018-12-31T05:53:27.451Z,1028.21
2018-12-31T05:54:27.440Z,1028.21
2018-12-31T05:55:27.761Z,1028.20
2018-12-31T05:56:27.498Z,1028.22
2018-12-31T05:57:27.535Z,1028.24
2018-12-31T05:58:27.669Z,1028.18
2018-12-31T05:59:27.595Z,1028.24
2018-12-31T06:00:27.679Z,1028.19
2018-12-31T06:01:27.689Z,1028.20
2018-12-31T06:02:28.035Z,1028.21
2018-12-31T06:03:27.721Z,1028.23
2018-12-31T06:04:27.812Z,1028.22
2018-12-31T06:05:27.880Z,1028.25
2018-12-31T06:06:27.856Z,1028.27
2018-12-31T06:07:27.836Z,1028.28
2018-12-31T06:08:27.933Z,1028.31
2018-12-31T06:09:28.260Z,1028.32
2018-12-31T06:10:27.987Z,1028.28
2018-12-31T06:11:28.070Z,1028.25
2018-12-31T06:12:28.053Z,1028.24
2018-12-31T06:13:28.031Z,1028.25
2018-12-31T06:14:28.107Z,1028.31
2018-12-31T06:15:28.093Z,1028.26
2018-12-31T06:16:28.425Z,1028.32
2018-12-31T06:17:28.155Z,1028.32
2018-12-31T06:18:28.287Z,1028.27
2018-12-31T06:19:28.272Z,1028.27
2018-12-31T06:20:28.296Z,1028.26
2018-12-31T06:21:28.287Z,1028.28
2018-12-31T06:22:28.314Z,1028.30
2018-12-31T06:23:28.740Z,1028.30
2018-12-31T06:24:28.460Z,1028.33
2018-12-31T06:25:28.463Z,1028.29
2018-12-31T06:26:28.493Z,1028.29
2018-12-31T06:27:28.477Z,1028.32
2018-12-31T06:28:28.506Z,1028.31
2018-12-31T06:29:28.583Z,1028.27
2018-12-31T06:31:29.049Z,1028.32
2018-12-31T06:32:28.628Z,1028.36
2018-12-31T06:33:28.714Z,1028.38
2018-12-31T06:34:28.736Z,1028.33
2018-12-31T06:35:28.779Z,1028.31
2018-12-31T06:36:28.817Z,1028.29
2018-12-31T06:38:28.867Z,1028.31
2018-12-31T06:39:29.198Z,1028.33
2018-12-31T06:40:28.922Z,1028.28
2018-12-31T06:41:29.221Z,1028.37
2018-12-31T06:42:28.943Z,1028.37
2018-12-31T06:43:29.020Z,1028.33
2018-12-31T06:44:29.064Z,1028.38
2018-12-31T06:45:29.089Z,1028.42
2018-12-31T06:46:29.419Z,1028.42
2018-12-31T06:47:29.209Z,1028.39
2018-12-31T06:48:29.183Z,1028.45
2018-12-31T06:49:29.212Z,1028.53
2018-12-31T06:50:29.238Z,1028.57
2018-12-31T06:51:29.270Z,1028.65
2018-12-31T06:52:29.309Z,1028.66
2018-12-31T06:53:29.592Z,1028.67
2018-12-31T06:54:29.369Z,1028.73
2018-12-31T06:55:29.350Z,1028.69
2018-12-31T06:56:29.387Z,1028.76
2018-12-31T06:57:29.467Z,1028.74
2018-12-31T06:58:29.607Z,1028.78
2018-12-31T06:59:29.529Z,1028.75
2018-12-31T07:00:29.862Z,1028.77
2018-12-31T07:01:29.540Z,1028.79
2018-12-31T07:02:29.629Z,1028.81
2018-12-31T07:03:29.599Z,1028.82
2018-12-31T07:04:29.678Z,1028.80
2018-12-31T07:05:29.678Z,1028.78
2018-12-31T07:06:29.695Z,1028.80
2018-12-31T07:07:30.029Z,1028.80
2018-12-31T07:08:29.805Z,1028.81
2018-12-31T07:09:29.843Z,1028.83
2018-12-31T07:10:29.925Z,1028.88
2018-12-31T07:12:29.925Z,1028.94
2018-12-31T07:13:29.912Z,1028.96
2018-12-31T07:14:30.299Z,1029.02
2018-12-31T07:15:30.048Z,1029.09
2018-12-31T07:16:30.095Z,1029.06
2018-12-31T07:17:30.039Z,1029.03
2018-12-31T07:18:30.122Z,1029.10
2018-12-31T07:19:30.100Z,1029.06
2018-12-31T07:20:30.148Z,1029.07
2018-12-31T07:21:30.464Z,1029.09
2018-12-31T07:24:30.266Z,1029.11
2018-12-31T07:26:30.383Z,1029.11
2018-12-31T07:27:30.350Z,1029.17
2018-12-31T07:28:30.687Z,1029.24
2018-12-31T07:29:30.599Z,1029.22
2018-12-31T07:30:30.511Z,1029.26
2018-12-31T07:31:30.474Z,1029.28
2018-12-31T07:32:30.657Z,1029.25
2018-12-31T07:33:30.541Z,1029.26
2018-12-31T07:34:30.610Z,1029.29
2018-12-31T07:35:30.993Z,1029.30
2018-12-31T07:36:30.678Z,1029.29
2018-12-31T07:37:30.963Z,1029.31
2018-12-31T07:38:30.699Z,1029.36
2018-12-31T07:39:30.857Z,1029.32
2018-12-31T07:40:30.786Z,1029.34
2018-12-31T07:41:30.841Z,1029.36
2018-12-31T07:42:31.121Z,1029.35
2018-12-31T07:43:30.861Z,1029.38
2018-12-31T07:44:30.882Z,1029.40
2018-12-31T07:45:31.080Z,1029.33
2018-12-31T07:46:31.049Z,1029.36
2018-12-31T07:47:31.026Z,1029.29
2018-12-31T07:49:31.048Z,1029.30
2018-12-31T07:50:31.433Z,1029.31
2018-12-31T07:51:31.107Z,1029.31
2018-12-31T07:52:31.260Z,1029.30
2018-12-31T07:53:31.218Z,1029.30
2018-12-31T07:54:31.298Z,1029.31
2018-12-31T07:55:31.363Z,1029.32
2018-12-31T07:56:31.314Z,1029.30
2018-12-31T07:57:31.590Z,1029.29
2018-12-31T07:58:31.319Z,1029.26
2018-12-31T07:59:31.379Z,1029.29
2018-12-31T08:00:31.442Z,1029.24
2018-12-31T08:01:31.424Z,1029.21
2018-12-31T08:03:31.531Z,1029.20
2018-12-31T08:04:31.823Z,1029.19
2018-12-31T08:05:31.593Z,1029.17
2018-12-31T08:06:31.681Z,1029.15
2018-12-31T08:07:31.612Z,1029.19
2018-12-31T08:08:31.698Z,1029.13
2018-12-31T08:09:31.674Z,1029.24
2018-12-31T08:11:32.087Z,1029.21
2018-12-31T08:12:31.816Z,1029.23
2018-12-31T08:13:31.852Z,1029.19
2018-12-31T08:14:31.828Z,1029.29
2018-12-31T08:15:31.956Z,1029.26
2018-12-31T08:16:31.945Z,1029.27
2018-12-31T08:17:31.927Z,1029.24
2018-12-31T08:19:32.082Z,1029.24
2018-12-31T08:20:32.019Z,1029.30
2018-12-31T08:21:32.094Z,1029.33
2018-12-31T08:22:32.134Z,1029.30
2018-12-31T08:23:32.163Z,1029.27
2018-12-31T08:24:32.194Z,1029.28
2018-12-31T08:25:32.478Z,1029.31
2018-12-31T08:26:32.202Z,1029.31
2018-12-31T08:27:32.238Z,1029.30
2018-12-31T08:28:32.318Z,1029.30
2018-12-31T08:29:32.298Z,1029.30
2018-12-31T08:30:32.379Z,1029.35
2018-12-31T08:31:32.412Z,1029.37
2018-12-31T08:32:32.743Z,1029.41
2018-12-31T08:33:32.535Z,1029.37
2018-12-31T08:34:32.514Z,1029.36
2018-12-31T08:35:32.545Z,1029.38
2018-12-31T08:36:32.527Z,1029.42
2018-12-31T08:37:32.609Z,1029.44
2018-12-31T08:38:32.638Z,1029.43
2018-12-31T08:39:32.926Z,1029.38
2018-12-31T08:40:32.698Z,1029.43
2018-12-31T08:41:32.678Z,1029.43
2018-12-31T08:42:32.764Z,1029.46
2018-12-31T08:43:32.759Z,1029.55
2018-12-31T08:44:32.843Z,1029.53
2018-12-31T08:45:32.799Z,1029.55
2018-12-31T08:46:33.186Z,1029.50
2018-12-31T08:47:32.913Z,1029.50
2018-12-31T08:48:32.953Z,1029.48
2018-12-31T08:49:32.927Z,1029.44
2018-12-31T08:50:32.974Z,1029.46
2018-12-31T08:51:32.994Z,1029.46
2018-12-31T08:53:33.359Z,1029.49
2018-12-31T08:54:33.139Z,1029.45
2018-12-31T08:55:33.122Z,1029.45
2018-12-31T08:56:33.208Z,1029.47
2018-12-31T08:57:33.191Z,1029.41
2018-12-31T08:58:33.271Z,1029.44
2018-12-31T08:59:33.548Z,1029.43
2018-12-31T09:01:33.356Z,1029.45
2018-12-31T09:02:33.339Z,1029.47
2018-12-31T09:03:33.426Z,1029.49
2018-12-31T09:04:33.457Z,1029.48
2018-12-31T09:05:33.733Z,1029.54
2018-12-31T09:06:33.492Z,1029.54
2018-12-31T09:07:33.503Z,1029.59
2018-12-31T09:08:34.777Z,1029.56
2018-12-31T09:09:33.614Z,1029.57
2018-12-31T09:10:33.660Z,1029.59
2018-12-31T09:11:33.934Z,1029.63
2018-12-31T09:12:33.704Z,1029.63
2018-12-31T09:14:33.780Z,1029.60
2018-12-31T09:15:33.797Z,1029.60
2018-12-31T09:16:33.897Z,1029.67
2018-12-31T09:17:33.810Z,1029.63
2018-12-31T09:18:34.142Z,1029.60
2018-12-31T09:19:33.936Z,1029.65
2018-12-31T09:21:33.943Z,1029.67
2018-12-31T09:22:33.971Z,1029.68
2018-12-31T09:23:34.004Z,1029.69
2018-12-31T09:24:34.165Z,1029.66
2018-12-31T09:25:34.417Z,1029.70
2018-12-31T09:26:34.297Z,1029.71
2018-12-31T09:27:34.129Z,1029.68
2018-12-31T09:28:34.156Z,1029.70
2018-12-31T09:29:34.199Z,1029.71
2018-12-31T09:30:34.271Z,1029.74
2018-12-31T09:31:34.250Z,1029.76
2018-12-31T09:32:34.585Z,1029.77
2018-12-31T09:33:34.375Z,1029.77
2018-12-31T09:35:34.430Z,1029.77
2018-12-31T09:36:34.464Z,1029.78
2018-12-31T09:38:34.481Z,1029.74
2018-12-31T09:39:34.816Z,1029.75
2018-12-31T09:41:34.622Z,1029.73
2018-12-31T09:43:34.643Z,1029.71
2018-12-31T09:44:34.667Z,1029.63
2018-12-31T09:45:34.752Z,1029.63
2018-12-31T09:46:35.024Z,1029.67
2018-12-31T09:47:34.781Z,1029.70
2018-12-31T09:48:34.801Z,1029.72
2018-12-31T09:49:34.869Z,1029.72
2018-12-31T09:50:34.906Z,1029.68
2018-12-31T09:51:34.939Z,1029.69
2018-12-31T09:53:34.950Z,1029.63
2018-12-31T09:55:35.364Z,1029.63
2018-12-31T09:58:36.415Z,1029.70
2018-12-31T09:59:35.193Z,1029.71
2018-12-31T10:00:35.221Z,1029.76
2018-12-31T10:01:35.201Z,1029.72
2018-12-31T10:03:35.613Z,1029.75
2018-12-31T10:05:35.378Z,1029.69
2018-12-31T10:06:35.409Z,1029.71
2018-12-31T10:07:35.394Z,1029.74
2018-12-31T10:08:35.470Z,1029.74
2018-12-31T10:09:35.810Z,1029.73
2018-12-31T10:10:35.543Z,1029.76
2018-12-31T10:11:35.586Z,1029.72
2018-12-31T10:12:35.612Z,1029.73
2018-12-31T10:13:35.634Z,1029.62
2018-12-31T10:14:35.667Z,1029.70
2018-12-31T10:15:35.649Z,1029.61
2018-12-31T10:16:35.997Z,1029.63
2018-12-31T10:17:35.806Z,1029.63
2018-12-31T10:18:35.737Z,1029.64
2018-12-31T10:19:35.827Z,1029.64
2018-12-31T10:20:35.905Z,1029.68
2018-12-31T10:21:41.009Z,1029.66
2018-12-31T10:24:36.298Z,1029.70
2018-12-31T10:26:36.053Z,1029.69
2018-12-31T10:27:36.089Z,1029.69
2018-12-31T10:28:36.152Z,1029.68
2018-12-31T10:29:36.469Z,1029.65
2018-12-31T10:30:36.185Z,1029.63
2018-12-31T10:31:36.509Z,1029.62
2018-12-31T10:32:36.185Z,1029.65
2018-12-31T10:33:36.336Z,1029.69
2018-12-31T10:34:36.411Z,1029.66
2018-12-31T10:35:36.339Z,1029.69
2018-12-31T10:37:36.570Z,1029.70
2018-12-31T10:38:36.736Z,1029.70
2018-12-31T10:39:36.466Z,1029.68
2018-12-31T10:41:36.528Z,1029.74
2018-12-31T10:42:36.506Z,1029.73
2018-12-31T10:45:36.897Z,1029.68
2018-12-31T10:46:36.633Z,1029.67
2018-12-31T10:47:36.719Z,1029.70
2018-12-31T10:48:36.946Z,1029.68
2018-12-31T10:49:36.731Z,1029.71
2018-12-31T10:50:36.814Z,1029.71
2018-12-31T10:51:36.855Z,1029.70
2018-12-31T10:52:37.183Z,1029.72
2018-12-31T10:53:36.919Z,1029.67
2018-12-31T10:54:36.945Z,1029.68
2018-12-31T10:56:36.999Z,1029.66
2018-12-31T10:57:36.983Z,1029.67
2018-12-31T10:58:37.265Z,1029.69
2018-12-31T10:59:37.521Z,1029.68
2018-12-31T11:01:37.135Z,1029.72
2018-12-31T11:02:37.325Z,1029.71
2018-12-31T11:03:37.237Z,1029.70
2018-12-31T11:04:37.248Z,1029.67
2018-12-31T11:05:37.282Z,1029.67
2018-12-31T11:06:37.580Z,1029.67
2018-12-31T11:07:37.331Z,1029.67
2018-12-31T11:08:37.414Z,1029.63
2018-12-31T11:09:37.420Z,1029.61
2018-12-31T11:12:37.507Z,1029.61
2018-12-31T11:13:37.835Z,1029.59
2018-12-31T11:14:37.659Z,1029.64
2018-12-31T11:15:37.560Z,1029.63
2018-12-31T11:16:37.630Z,1029.64
2018-12-31T11:17:37.695Z,1029.65
2018-12-31T11:18:37.743Z,1029.60
2018-12-31T11:19:37.777Z,1029.63
2018-12-31T11:20:38.059Z,1029.57
2018-12-31T11:21:37.798Z,1029.57
2018-12-31T11:23:37.892Z,1029.57
2018-12-31T11:24:37.891Z,1029.57
2018-12-31T11:25:37.930Z,1029.56
2018-12-31T11:26:37.972Z,1029.55
2018-12-31T11:27:38.284Z,1029.52
2018-12-31T11:28:38.023Z,1029.55
2018-12-31T11:29:38.176Z,1029.52
2018-12-31T11:30:38.101Z,1029.52
2018-12-31T11:31:38.142Z,1029.48
2018-12-31T11:32:38.091Z,1029.46
2018-12-31T11:33:38.180Z,1029.48
2018-12-31T11:34:38.532Z,1029.49
2018-12-31T11:35:38.244Z,1029.49
2018-12-31T11:36:38.271Z,1029.49
2018-12-31T11:37:38.326Z,1029.50
2018-12-31T11:38:38.445Z,1029.47
2018-12-31T11:39:38.361Z,1029.44
2018-12-31T11:40:38.391Z,1029.45
2018-12-31T11:41:38.751Z,1029.43
2018-12-31T11:42:38.470Z,1029.45
2018-12-31T11:43:38.446Z,1029.42
2018-12-31T11:44:38.529Z,1029.43
2018-12-31T11:45:38.587Z,1029.44
2018-12-31T11:46:38.597Z,1029.44
2018-12-31T11:47:38.609Z,1029.42
2018-12-31T11:48:39.013Z,1029.39
2018-12-31T11:49:38.693Z,1029.36
2018-12-31T11:50:38.775Z,1029.36
2018-12-31T11:51:38.931Z,1029.34
2018-12-31T11:52:38.876Z,1029.29
2018-12-31T11:53:38.807Z,1029.28
2018-12-31T11:54:39.417Z,1029.25
2018-12-31T11:55:39.225Z,1029.25
2018-12-31T11:56:38.929Z,1029.24
2018-12-31T11:57:38.931Z,1029.24
2018-12-31T11:58:38.943Z,1029.21
2018-12-31T11:59:38.950Z,1029.16
2018-12-31T12:00:39.029Z,1029.19
2018-12-31T12:01:40.419Z,1029.20
2018-12-31T12:03:39.185Z,1029.08
2018-12-31T12:04:39.208Z,1029.13
2018-12-31T12:05:39.191Z,1029.10
2018-12-31T12:06:39.232Z,1029.14
2018-12-31T12:07:39.213Z,1029.09
2018-12-31T12:08:39.292Z,1029.07
2018-12-31T12:09:39.315Z,1029.11
2018-12-31T12:10:39.386Z,1029.07
2018-12-31T12:11:39.395Z,1029.06
2018-12-31T12:12:39.498Z,1029.06
2018-12-31T12:14:40.774Z,1029.05
2018-12-31T12:15:39.471Z,1029.07
2018-12-31T12:16:39.544Z,1029.05
2018-12-31T12:17:40.357Z,1029.05
2018-12-31T12:18:39.618Z,1029.06
2018-12-31T12:19:39.655Z,1029.06
2018-12-31T12:22:39.841Z,1029.06
2018-12-31T12:23:39.795Z,1029.04
2018-12-31T12:24:39.834Z,1029.05
2018-12-31T12:26:39.883Z,1029.05
2018-12-31T12:27:40.152Z,1029.10
2018-12-31T12:28:39.962Z,1029.09
2018-12-31T12:29:39.905Z,1029.04
2018-12-31T12:30:39.985Z,1029.02
2018-12-31T12:31:40.019Z,1029.00
2018-12-31T12:32:40.076Z,1029.01
2018-12-31T12:33:40.031Z,1029.02
2018-12-31T12:35:40.172Z,1029.03
2018-12-31T12:36:40.191Z,1029.04
2018-12-31T12:37:40.192Z,1029.05
2018-12-31T12:38:40.262Z,1029.04
2018-12-31T12:39:40.305Z,1029.07
2018-12-31T12:40:40.637Z,1029.06
2018-12-31T12:42:40.378Z,1029.05
2018-12-31T12:43:40.405Z,1029.02
2018-12-31T12:45:40.526Z,1029.02
2018-12-31T12:46:40.512Z,1029.05
2018-12-31T12:47:41.908Z,1029.06
2018-12-31T12:48:40.659Z,1029.11
2018-12-31T12:49:40.661Z,1029.08
2018-12-31T12:50:40.638Z,1029.06
2018-12-31T12:51:40.700Z,1029.09
2018-12-31T12:52:40.694Z,1029.09
2018-12-31T12:53:41.442Z,1029.07
2018-12-31T12:54:41.005Z,1029.11
2018-12-31T12:56:40.811Z,1029.10
2018-12-31T12:57:40.812Z,1029.13
2018-12-31T12:58:41.535Z,1029.08
2018-12-31T12:59:40.937Z,1029.07
2018-12-31T13:01:40.992Z,1029.10
2018-12-31T13:02:41.276Z,1029.14
2018-12-31T13:03:41.050Z,1029.10
2018-12-31T13:04:44.281Z,1029.14
2018-12-31T13:05:41.113Z,1029.12
2018-12-31T13:07:41.278Z,1029.13
2018-12-31T13:08:41.456Z,1029.13
2018-12-31T13:09:41.571Z,1029.12
2018-12-31T13:10:41.235Z,1029.08
2018-12-31T13:11:41.304Z,1029.10
2018-12-31T13:12:41.521Z,1029.13
2018-12-31T13:13:41.458Z,1029.10
2018-12-31T13:14:41.612Z,1029.08
2018-12-31T13:15:41.428Z,1029.08
2018-12-31T13:16:42.001Z,1029.08
2018-12-31T13:17:41.505Z,1029.10